Pagrindinis puslapis
METAR-TAF:

METAR-TAF

Oro uostai :

Rivnė, Ukraina

platuma: 50-35N, ilguma: 026-08E, Aukštis: 231 m

Dabartinis oras

Ataskaita buvo paskelbta 1 valandą ir 20 minutes, ne 15:00 UTC
Vėjas 6 kt iš Pietryčių
Temperatūra 5°C
Drėgmė 75%
Slėgis 1003 hPa
Matomumas 10 km arba daugiau
nėra debesų žemiau 1500 m ir nėra kamuolinių lietaus debesų

METAR: UKLR 231500Z 13003MPS CAVOK 05/01 Q1003 R11/591030 NOSIG

Laikas: 18:20 (16:20 UTC)

Prognozė

Ataskaita buvo paskelbta 5 valandos ir 10 minutes, ne 11:10 UTC
Prognozė galioja nuo 23 metu 12 UTC su 23 metu 21 UTC
Vėjas 6 kt iš Pietryčių
Matomumas 10 km arba daugiau
Su prošvaistėmis ne aukštis 2000 ft

TAF: UKLR 231110Z 2312/2321 14003MPS 9999 BKN020

Orai ataskaitas ir orų prognozės (METAR, TAF).

turimą stotys yra geltonos ir raudonos taškus žemėlapyje.

Perkelti pele per norėdami pamatyti stoties vardą.

Tada spustelėkite, norėdami matyti oro stebėjimo ir prognozės.

Norėdami pakeisti žemėlapį: spustelėkite ant žalios mygtukų su juodo kryžiaus žemyn,; žalią mygtuką su brūkšneliu, jei norite nutolinti; arba žalių rodyklių gretimoms žemėlapius.


METAR-TAF: